createdAt,value
2022-12-29T00:01:30.276Z,88.70
2022-12-29T00:04:57.733Z,88.78
2022-12-29T00:08:40.818Z,88.52
2022-12-29T00:12:08.712Z,88.48
2022-12-29T00:15:41.200Z,88.75
2022-12-29T00:19:28.565Z,88.57
2022-12-29T00:23:13.129Z,88.64
2022-12-29T00:27:04.530Z,88.71
2022-12-29T00:30:49.508Z,88.63
2022-12-29T00:34:34.206Z,88.85
2022-12-29T00:38:23.249Z,88.54
2022-12-29T00:42:08.510Z,88.41
2022-12-29T00:45:35.594Z,88.37
2022-12-29T00:49:20.464Z,88.37
2022-12-29T00:52:47.392Z,88.30
2022-12-29T00:56:14.375Z,88.11
2022-12-29T00:59:42.830Z,88.30
2022-12-29T01:03:09.901Z,88.00
2022-12-29T01:06:39.540Z,88.12
2022-12-29T01:10:12.972Z,88.02
2022-12-29T01:13:42.084Z,87.66
2022-12-29T01:17:09.653Z,87.62
2022-12-29T01:20:36.617Z,87.43
2022-12-29T01:24:05.139Z,86.93
2022-12-29T01:27:32.063Z,87.18
2022-12-29T01:31:02.022Z,87.10
2022-12-29T01:34:29.894Z,86.75
2022-12-29T01:37:56.868Z,86.39
2022-12-29T01:41:24.088Z,86.36
2022-12-29T01:44:57.190Z,86.53
2022-12-29T01:48:24.596Z,85.96
2022-12-29T01:51:56.470Z,86.06
2022-12-29T01:55:24.449Z,85.60
2022-12-29T01:58:56.976Z,85.91
2022-12-29T02:02:24.386Z,85.62
2022-12-29T02:05:55.723Z,85.58
2022-12-29T02:09:22.717Z,85.47
2022-12-29T02:12:51.940Z,85.52
2022-12-29T02:16:36.499Z,85.64
2022-12-29T02:20:40.055Z,85.42
2022-12-29T02:24:33.946Z,85.64
2022-12-29T02:28:25.312Z,85.62
2022-12-29T02:32:00.580Z,85.72
2022-12-29T02:35:37.786Z,85.88
2022-12-29T02:39:14.198Z,86.14
2022-12-29T02:42:49.169Z,86.48
2022-12-29T02:46:24.802Z,86.52
2022-12-29T02:49:59.927Z,86.60
2022-12-29T02:53:42.695Z,86.69
2022-12-29T02:57:14.729Z,86.76
2022-12-29T03:00:50.745Z,86.82
2022-12-29T03:04:33.975Z,87.08
2022-12-29T03:08:14.686Z,87.53
2022-12-29T03:12:13.893Z,87.69
2022-12-29T03:16:02.723Z,87.54
2022-12-29T03:19:32.852Z,87.70
2022-12-29T03:23:05.570Z,87.84
2022-12-29T03:26:34.969Z,87.91
2022-12-29T03:30:05.610Z,88.21
2022-12-29T03:33:34.922Z,88.32
2022-12-29T03:37:03.015Z,88.27
2022-12-29T03:40:31.029Z,88.70
2022-12-29T03:43:58.479Z,88.98
2022-12-29T03:47:26.202Z,88.84
2022-12-29T03:50:54.142Z,89.18
2022-12-29T03:54:21.125Z,89.38
2022-12-29T03:57:48.311Z,89.33
2022-12-29T04:01:20.660Z,89.27
2022-12-29T04:04:48.198Z,89.35
2022-12-29T04:08:15.088Z,89.14
2022-12-29T04:11:43.003Z,89.16
2022-12-29T04:15:11.913Z,89.29
2022-12-29T04:18:38.786Z,89.31
2022-12-29T04:22:05.921Z,89.16
2022-12-29T04:25:34.981Z,89.34
2022-12-29T04:29:03.188Z,88.79
2022-12-29T04:32:45.253Z,88.80
2022-12-29T04:36:12.476Z,88.46
2022-12-29T04:39:39.737Z,88.60
2022-12-29T04:43:07.849Z,88.28
2022-12-29T04:46:54.898Z,88.09
2022-12-29T04:51:00.487Z,87.86
2022-12-29T04:54:33.189Z,87.14
2022-12-29T04:58:09.071Z,87.32
2022-12-29T05:01:37.644Z,86.91
2022-12-29T05:05:05.251Z,86.92
2022-12-29T05:08:33.686Z,86.56
2022-12-29T05:12:03.221Z,86.43
2022-12-29T05:15:31.902Z,86.31
2022-12-29T05:18:58.819Z,86.33
2022-12-29T05:22:25.989Z,86.05
2022-12-29T05:25:54.659Z,86.13
2022-12-29T05:29:29.654Z,85.87
2022-12-29T05:32:56.673Z,85.76
2022-12-29T05:36:24.293Z,85.75
2022-12-29T05:39:55.440Z,85.79
2022-12-29T05:43:24.254Z,85.84
2022-12-29T05:47:10.392Z,85.93
2022-12-29T05:50:51.105Z,85.83
2022-12-29T05:54:23.753Z,85.78
2022-12-29T05:57:51.316Z,85.58
2022-12-29T06:01:18.273Z,85.54
2022-12-29T06:04:45.628Z,85.76
2022-12-29T06:08:12.816Z,85.63
2022-12-29T06:11:40.571Z,85.84
2022-12-29T06:15:11.129Z,85.59
2022-12-29T06:18:39.961Z,85.42
2022-12-29T06:22:09.009Z,85.55
2022-12-29T06:25:36.918Z,85.38
2022-12-29T06:29:03.863Z,85.18
2022-12-29T06:32:30.908Z,85.22
2022-12-29T06:36:02.996Z,85.53
2022-12-29T06:39:31.346Z,85.20
2022-12-29T06:43:05.356Z,85.18
2022-12-29T06:46:58.594Z,85.32
2022-12-29T06:50:25.665Z,85.24
2022-12-29T06:53:52.652Z,85.04
2022-12-29T06:57:19.733Z,85.30
2022-12-29T07:00:46.586Z,84.92
2022-12-29T07:04:13.660Z,84.96
2022-12-29T07:07:40.746Z,85.15
2022-12-29T07:11:08.155Z,85.22
2022-12-29T07:14:40.857Z,85.02
2022-12-29T07:18:09.924Z,85.01
2022-12-29T07:21:37.305Z,84.83
2022-12-29T07:25:04.689Z,84.67
2022-12-29T07:28:33.351Z,84.50
2022-12-29T07:32:00.925Z,84.18
2022-12-29T07:35:28.346Z,84.42
2022-12-29T07:38:55.264Z,84.22
2022-12-29T07:42:22.171Z,84.14
2022-12-29T07:45:53.151Z,84.19
2022-12-29T07:49:23.395Z,83.91
2022-12-29T07:52:50.524Z,83.97
2022-12-29T07:56:17.493Z,84.00
2022-12-29T07:59:44.948Z,83.88
2022-12-29T08:03:11.807Z,83.71
2022-12-29T08:06:38.895Z,83.47
2022-12-29T08:10:07.277Z,83.65
2022-12-29T08:13:34.158Z,83.40
2022-12-29T08:17:01.096Z,83.41
2022-12-29T08:20:28.125Z,83.06
2022-12-29T08:23:55.060Z,82.93
2022-12-29T08:27:22.156Z,83.12
2022-12-29T08:30:49.325Z,82.96
2022-12-29T08:34:16.454Z,82.77
2022-12-29T08:37:43.245Z,82.63
2022-12-29T08:41:10.260Z,82.37
2022-12-29T08:44:37.505Z,82.57
2022-12-29T08:48:04.838Z,82.43
2022-12-29T08:51:31.676Z,82.56
2022-12-29T08:54:58.973Z,82.41
2022-12-29T08:58:27.532Z,82.54
2022-12-29T09:01:55.569Z,82.49
2022-12-29T09:05:23.014Z,82.19
2022-12-29T09:08:50.554Z,82.23
2022-12-29T09:12:17.753Z,82.61
2022-12-29T09:15:45.036Z,82.51
2022-12-29T09:19:11.947Z,82.42
2022-12-29T09:22:39.379Z,81.94
2022-12-29T09:26:06.652Z,81.59
2022-12-29T09:29:33.564Z,81.24
2022-12-29T09:33:01.038Z,81.29
2022-12-29T09:36:28.252Z,81.14
2022-12-29T09:39:55.658Z,81.14
2022-12-29T09:43:53.883Z,81.13
2022-12-29T09:47:23.389Z,80.39
2022-12-29T09:50:57.583Z,80.40
2022-12-29T09:54:58.108Z,79.87
2022-12-29T09:58:38.113Z,79.31
2022-12-29T10:02:16.963Z,79.41
2022-12-29T10:05:52.327Z,79.58
2022-12-29T10:09:24.913Z,79.17
2022-12-29T10:13:10.750Z,78.81
2022-12-29T10:16:48.815Z,79.12
2022-12-29T10:20:39.678Z,77.98
2022-12-29T10:24:09.602Z,77.82
2022-12-29T10:27:37.223Z,77.59
2022-12-29T10:31:08.948Z,77.32
2022-12-29T10:34:39.759Z,77.42
2022-12-29T10:38:15.337Z,77.32
2022-12-29T10:41:47.141Z,76.71
2022-12-29T10:45:18.870Z,76.49
2022-12-29T10:48:47.599Z,76.23
2022-12-29T10:52:16.863Z,75.77
2022-12-29T10:55:46.050Z,75.20
2022-12-29T10:59:19.392Z,75.69
2022-12-29T11:03:15.089Z,75.37
2022-12-29T11:06:42.514Z,74.54
2022-12-29T11:10:31.512Z,74.20
2022-12-29T11:14:04.835Z,74.79
2022-12-29T11:17:31.986Z,74.58
2022-12-29T11:21:01.419Z,74.82
2022-12-29T11:24:30.765Z,73.56
2022-12-29T11:28:03.717Z,73.48
2022-12-29T11:31:30.713Z,73.31
2022-12-29T11:34:58.750Z,73.12
2022-12-29T11:38:35.041Z,73.05
2022-12-29T11:42:03.462Z,72.30
2022-12-29T11:45:34.172Z,71.61
2022-12-29T11:49:01.853Z,72.10
2022-12-29T11:52:32.143Z,71.68
2022-12-29T11:56:01.921Z,71.54
2022-12-29T11:59:51.396Z,71.26
2022-12-29T12:03:22.026Z,70.74
2022-12-29T12:06:59.449Z,71.46
2022-12-29T12:10:31.170Z,71.44
2022-12-29T12:14:04.675Z,71.27
2022-12-29T12:17:50.656Z,70.85
2022-12-29T12:21:33.988Z,72.10
2022-12-29T12:25:06.490Z,70.66
2022-12-29T12:28:39.837Z,71.34
2022-12-29T12:32:16.211Z,71.28
2022-12-29T12:35:50.398Z,71.46
2022-12-29T12:39:28.049Z,71.38
2022-12-29T12:43:10.740Z,71.62
2022-12-29T12:47:08.882Z,71.45
2022-12-29T12:50:49.118Z,71.57
2022-12-29T12:54:32.486Z,71.66
2022-12-29T12:58:10.797Z,71.89
2022-12-29T13:01:54.142Z,71.44
2022-12-29T13:05:45.346Z,71.79
2022-12-29T13:09:39.476Z,71.98
2022-12-29T13:13:35.809Z,72.16
2022-12-29T13:17:13.294Z,72.10
2022-12-29T13:20:48.450Z,71.95
2022-12-29T13:24:25.902Z,71.33
2022-12-29T13:28:01.672Z,71.83
2022-12-29T13:31:37.513Z,71.75
2022-12-29T13:35:29.952Z,72.05
2022-12-29T13:39:05.054Z,71.85
2022-12-29T13:42:33.476Z,71.79
2022-12-29T13:46:04.549Z,72.22
2022-12-29T13:49:31.937Z,72.16
2022-12-29T13:53:18.157Z,72.25
2022-12-29T13:56:53.442Z,72.52
2022-12-29T14:00:23.079Z,72.50
2022-12-29T14:03:54.132Z,72.70
2022-12-29T14:07:21.487Z,72.46
2022-12-29T14:10:52.960Z,72.86
2022-12-29T14:14:27.565Z,72.93
2022-12-29T14:18:13.531Z,72.82
2022-12-29T14:21:41.323Z,73.11
2022-12-29T14:25:29.541Z,73.36
2022-12-29T14:29:04.533Z,73.37
2022-12-29T14:32:41.704Z,73.30
2022-12-29T14:36:27.862Z,73.55
2022-12-29T14:40:08.329Z,73.80
2022-12-29T14:43:35.384Z,73.71
2022-12-29T14:47:08.243Z,73.72
2022-12-29T14:50:42.049Z,73.81
2022-12-29T14:54:45.339Z,73.76
2022-12-29T14:58:19.595Z,73.58
2022-12-29T15:01:54.274Z,73.81
2022-12-29T15:05:36.249Z,73.99
2022-12-29T15:09:15.405Z,74.02
2022-12-29T15:12:47.957Z,74.31
2022-12-29T15:16:28.429Z,74.52
2022-12-29T15:19:55.368Z,74.54
2022-12-29T15:23:22.823Z,74.55
2022-12-29T15:26:52.797Z,74.49
2022-12-29T15:30:18.770Z,74.30
2022-12-29T15:33:49.055Z,74.18
2022-12-29T15:37:22.816Z,74.29
2022-12-29T15:40:55.496Z,74.25
2022-12-29T15:44:26.818Z,74.10
2022-12-29T15:48:00.785Z,73.97
2022-12-29T15:51:32.959Z,74.19
2022-12-29T15:55:02.596Z,74.43
2022-12-29T15:58:32.698Z,74.38
2022-12-29T16:02:03.520Z,74.41
2022-12-29T16:05:38.864Z,74.30
2022-12-29T16:09:08.774Z,74.56
2022-12-29T16:12:39.117Z,74.50
2022-12-29T16:16:15.416Z,74.53
2022-12-29T16:19:44.400Z,74.56
2022-12-29T16:23:23.013Z,74.61
2022-12-29T16:26:53.474Z,74.74
2022-12-29T16:30:31.195Z,74.82
2022-12-29T16:34:12.397Z,74.81
2022-12-29T16:37:40.440Z,74.82
2022-12-29T16:41:08.049Z,74.87
2022-12-29T16:44:34.981Z,74.92
2022-12-29T16:48:19.900Z,74.61
2022-12-29T16:51:46.810Z,74.78
2022-12-29T16:55:21.275Z,74.91
2022-12-29T16:58:54.637Z,74.96
2022-12-29T17:02:26.903Z,75.12
2022-12-29T17:05:57.496Z,75.17
2022-12-29T17:09:28.729Z,75.25
2022-12-29T17:12:55.732Z,75.48
2022-12-29T17:16:23.059Z,75.44
2022-12-29T17:19:53.624Z,75.54
2022-12-29T17:23:26.480Z,75.54
2022-12-29T17:26:56.750Z,75.18
2022-12-29T17:30:32.892Z,75.14
2022-12-29T17:34:01.278Z,74.85
2022-12-29T17:37:37.506Z,74.84
2022-12-29T17:41:04.773Z,74.68
2022-12-29T17:44:31.793Z,74.82
2022-12-29T17:48:01.956Z,74.88
2022-12-29T17:51:29.707Z,74.98
2022-12-29T17:54:57.583Z,74.96
2022-12-29T17:58:26.305Z,74.96
2022-12-29T18:01:53.461Z,75.10
2022-12-29T18:05:24.408Z,75.09
2022-12-29T18:08:51.817Z,75.34
2022-12-29T18:12:31.853Z,75.43
2022-12-29T18:15:59.177Z,75.31
2022-12-29T18:19:29.653Z,75.60
2022-12-29T18:23:00.129Z,75.66
2022-12-29T18:26:31.547Z,75.93
2022-12-29T18:29:58.450Z,76.02
2022-12-29T18:33:26.812Z,76.26
2022-12-29T18:36:53.975Z,76.35
2022-12-29T18:40:20.932Z,76.49
2022-12-29T18:43:49.277Z,76.67
2022-12-29T18:47:16.163Z,76.72
2022-12-29T18:50:43.492Z,76.86
2022-12-29T18:54:23.468Z,77.01
2022-12-29T18:57:50.747Z,77.16
2022-12-29T19:01:22.106Z,77.23
2022-12-29T19:04:53.026Z,77.25
2022-12-29T19:08:20.821Z,77.39
2022-12-29T19:11:47.807Z,77.34
2022-12-29T19:15:24.787Z,77.37
2022-12-29T19:19:08.253Z,77.55
2022-12-29T19:22:36.137Z,77.79
2022-12-29T19:26:02.972Z,77.94
2022-12-29T19:29:30.743Z,77.98
2022-12-29T19:33:00.119Z,77.92
2022-12-29T19:36:28.459Z,78.05
2022-12-29T19:39:55.379Z,77.91
2022-12-29T19:43:22.212Z,77.91
2022-12-29T19:46:49.282Z,77.81
2022-12-29T19:50:18.337Z,77.71
2022-12-29T19:53:45.518Z,77.76
2022-12-29T19:57:12.523Z,77.68
2022-12-29T20:00:41.521Z,77.68
2022-12-29T20:04:08.536Z,77.66
2022-12-29T20:07:35.980Z,77.71
2022-12-29T20:11:05.509Z,77.85
2022-12-29T20:14:32.438Z,77.84
2022-12-29T20:18:13.298Z,77.95
2022-12-29T20:21:41.358Z,78.04
2022-12-29T20:25:43.776Z,78.22
2022-12-29T20:28:58.763Z,78.30
2022-12-29T20:32:26.299Z,78.36
2022-12-29T20:35:53.689Z,78.46
2022-12-29T20:39:21.872Z,78.54
2022-12-29T20:42:48.782Z,78.98
2022-12-29T20:46:20.507Z,79.13
2022-12-29T20:49:48.496Z,79.31
2022-12-29T20:53:15.375Z,79.43
2022-12-29T20:56:42.428Z,79.54
2022-12-29T21:00:13.099Z,79.74
2022-12-29T21:03:43.251Z,79.90
2022-12-29T21:07:13.792Z,80.15
2022-12-29T21:10:47.431Z,80.51
2022-12-29T21:14:14.418Z,80.71
2022-12-29T21:17:41.304Z,80.95
2022-12-29T21:21:10.644Z,80.96
2022-12-29T21:24:38.718Z,81.02
2022-12-29T21:28:06.056Z,80.98
2022-12-29T21:31:34.756Z,80.96
2022-12-29T21:35:01.591Z,80.79
2022-12-29T21:38:29.947Z,80.90
2022-12-29T21:42:00.362Z,80.75
2022-12-29T21:45:30.173Z,80.67
2022-12-29T21:48:57.029Z,80.66
2022-12-29T21:52:23.925Z,80.55
2022-12-29T21:55:54.881Z,80.49
2022-12-29T21:59:41.917Z,80.30
2022-12-29T22:03:26.686Z,80.25
2022-12-29T22:07:11.344Z,80.22
2022-12-29T22:10:59.393Z,80.00
2022-12-29T22:14:26.476Z,80.03
2022-12-29T22:17:55.320Z,79.95
2022-12-29T22:21:22.819Z,79.92
2022-12-29T22:24:49.905Z,79.83
2022-12-29T22:28:16.811Z,79.95
2022-12-29T22:31:43.691Z,79.92
2022-12-29T22:35:11.852Z,80.11
2022-12-29T22:38:38.806Z,80.14
2022-12-29T22:42:06.533Z,80.08
2022-12-29T22:45:33.424Z,80.16
2022-12-29T22:49:00.582Z,80.23
2022-12-29T22:52:27.607Z,80.27
2022-12-29T22:56:04.384Z,80.36
2022-12-29T22:59:31.412Z,80.44
2022-12-29T23:02:58.701Z,80.48
2022-12-29T23:06:28.863Z,80.67
2022-12-29T23:09:56.876Z,80.76
2022-12-29T23:13:24.369Z,80.76
2022-12-29T23:16:51.550Z,80.81
2022-12-29T23:20:19.131Z,80.79
2022-12-29T23:24:03.453Z,80.87
2022-12-29T23:27:30.578Z,80.79
2022-12-29T23:30:57.978Z,80.85
2022-12-29T23:34:25.516Z,80.81
2022-12-29T23:37:52.420Z,80.88
2022-12-29T23:41:19.253Z,80.82
2022-12-29T23:44:46.335Z,80.96
2022-12-29T23:48:13.587Z,81.08
2022-12-29T23:51:40.654Z,81.51
2022-12-29T23:55:09.527Z,81.59
2022-12-29T23:58:37.338Z,81.66
